Time;durP1;ratioP1;P1;durP2;ratioP2;P2;SDS_P1;SDS_P2;PMS_P1;PMS_P2;Temp;Humidity;BMP_temperature;BMP_pressure;BME280_temperature;BME280_humidity;BME280_pressure;Samples;Min_cycle;Max_cycle;Signal;HPM_P1;HPM_P2
2021/09/14 00:00:54;;;;;;;;;7.50;5.75;;;;;23.18;55.02;100899.97;4878786;29;45510;-49
2021/09/14 00:03:19;;;;;;;;;6.00;6.00;;;;;23.19;54.92;100876.63;4881235;29;45379;-52
2021/09/14 00:05:45;;;;;;;;;6.00;6.00;;;;;23.16;54.99;100869.75;4887012;29;45760;-49
2021/09/14 00:08:10;;;;;;;;;7.00;6.00;;;;;23.12;55.12;100871.06;4877577;29;45463;-54
2021/09/14 00:10:36;;;;;;;;;6.25;6.25;;;;;23.09;55.15;100874.09;4881998;29;45415;-51
2021/09/14 00:13:01;;;;;;;;;11.00;9.00;;;;;23.07;55.06;100876.97;4881210;29;45426;-51
2021/09/14 00:15:27;;;;;;;;;8.25;7.00;;;;;23.06;55.07;100882.50;4886497;29;45631;-51
2021/09/14 00:17:52;;;;;;;;;8.50;8.50;;;;;23.07;55.38;100889.56;4883772;29;45305;-52
2021/09/14 00:20:18;;;;;;;;;8.50;7.00;;;;;23.08;55.29;100893.94;4882778;29;45404;-50
2021/09/14 06:04:10;;;;;;;;;11.50;10.25;;;;;21.19;69.66;100888.78;4878656;29;45487;-57
2021/09/14 06:06:37;;;;;;;;;15.00;12.50;;;;;21.19;69.61;100890.63;4881964;29;46442;-58
2021/09/14 06:09:52;;;;;;;;;15.00;13.50;;;;;21.17;70.18;100898.81;4878815;29;45382;-57
2021/09/14 06:12:17;;;;;;;;;15.00;13.00;;;;;21.17;69.85;100906.00;4870860;29;45513;-58
2021/09/14 06:14:43;;;;;;;;;16.00;13.00;;;;;21.16;69.90;100909.66;4877187;29;45208;-57
2021/09/14 06:17:08;;;;;;;;;10.00;10.00;;;;;21.12;69.69;100909.16;4878289;29;45434;-54
2021/09/14 06:19:34;;;;;;;;;14.00;11.75;;;;;21.15;69.67;100906.16;4878490;29;45397;-58
2021/09/14 06:22:01;;;;;;;;;11.25;9.75;;;;;21.16;68.98;100901.63;4878885;29;45178;-57
2021/09/14 06:24:27;;;;;;;;;10.25;10.00;;;;;21.17;69.16;100906.00;4875211;29;45322;-56
2021/09/14 06:26:52;;;;;;;;;13.75;11.50;;;;;21.19;69.48;100914.72;4874953;29;45491;-56
2021/09/14 06:29:18;;;;;;;;;15.00;11.75;;;;;21.18;69.54;100911.22;4876285;29;46338;-55
2021/09/14 06:31:43;;;;;;;;;14.00;11.00;;;;;21.17;69.49;100912.22;4874693;29;45652;-58
2021/09/14 06:34:09;;;;;;;;;12.00;12.00;;;;;21.15;69.89;100900.78;4874684;29;45339;-58
2021/09/14 06:36:34;;;;;;;;;11.00;10.75;;;;;21.14;69.69;100898.28;4876247;29;45736;-56
2021/09/14 06:39:00;;;;;;;;;10.50;10.00;;;;;21.13;69.73;100894.75;4878122;29;45854;-57
2021/09/14 06:41:27;;;;;;;;;11.00;9.00;;;;;21.12;69.97;100898.44;4874930;29;45329;-57
2021/09/14 06:43:53;;;;;;;;;12.50;9.25;;;;;21.15;70.07;100902.63;4874378;29;45492;-57
2021/09/14 06:46:19;;;;;;;;;12.25;10.00;;;;;21.15;70.06;100911.50;4876384;29;45367;-58
2021/09/14 06:48:44;;;;;;;;;11.75;11.25;;;;;21.14;70.04;100922.38;4873817;29;46384;-59
2021/09/14 06:51:10;;;;;;;;;13.00;12.50;;;;;21.13;70.69;100934.09;4875341;29;45395;-58
2021/09/14 06:53:35;;;;;;;;;12.75;12.00;;;;;21.12;70.79;100938.63;4874002;29;45346;-58
2021/09/14 06:56:01;;;;;;;;;12.50;10.75;;;;;21.13;71.06;100937.63;4874314;29;45406;-57
2021/09/14 06:58:26;;;;;;;;;10.75;10.75;;;;;21.12;71.12;100927.06;4875422;29;46200;-57
2021/09/14 07:00:53;;;;;;;;;11.00;10.75;;;;;21.12;70.91;100914.50;4875429;29;45320;-55
2021/09/14 07:03:19;;;;;;;;;11.75;10.50;;;;;21.14;71.06;100911.66;4874278;29;45414;-58
2021/09/14 07:05:44;;;;;;;;;16.50;10.50;;;;;21.13;71.48;100916.19;4896849;29;45305;-57
2021/09/14 07:08:09;;;;;;;;;10.75;10.75;;;;;21.11;71.52;100931.59;4895258;29;45306;-56
2021/09/14 07:10:35;;;;;;;;;10.75;10.00;;;;;21.10;71.73;100939.78;4893997;29;45245;-56
2021/09/14 07:13:01;;;;;;;;;17.50;13.25;;;;;21.08;71.79;100950.63;4894717;29;45319;-58
2021/09/14 07:15:26;;;;;;;;;11.50;11.25;;;;;21.06;72.14;100933.88;4896284;29;45282;-57
2021/09/14 07:17:51;;;;;;;;;11.25;11.25;;;;;21.04;72.48;100933.19;4893220;29;46155;-60
2021/09/14 07:20:17;;;;;;;;;16.25;14.00;;;;;21.04;72.10;100921.63;4894280;29;45223;-58
2021/09/14 07:22:43;;;;;;;;;15.25;12.75;;;;;21.05;72.56;100905.41;4893021;29;45342;-58
2021/09/14 07:25:09;;;;;;;;;12.00;9.00;;;;;21.05;72.65;100891.19;4893636;29;45351;-55
2021/09/14 07:27:35;;;;;;;;;13.00;13.00;;;;;21.01;72.46;100874.56;4892512;29;45325;-57
2021/09/14 07:30:00;;;;;;;;;15.00;12.75;;;;;20.98;72.85;100845.41;4898276;29;45315;-54
2021/09/14 07:32:26;;;;;;;;;14.50;14.25;;;;;20.95;73.53;100831.50;4897171;28;45371;-56
2021/09/14 07:34:51;;;;;;;;;16.25;12.50;;;;;20.96;73.48;100839.38;4899610;29;45247;-56
2021/09/14 07:37:17;;;;;;;;;13.25;12.00;;;;;20.98;73.48;100842.75;4898296;29;45478;-58
2021/09/14 07:39:42;;;;;;;;;14.00;13.00;;;;;21.03;73.54;100839.59;4898858;29;45393;-58
2021/09/14 07:42:11;;;;;;;;;14.25;13.25;;;;;21.04;73.67;100827.88;4899190;29;45598;-57
2021/09/14 07:44:37;;;;;;;;;16.50;16.00;;;;;21.06;73.84;100826.72;4898237;29;45452;-57
2021/09/14 07:47:02;;;;;;;;;12.00;11.25;;;;;21.11;73.97;100837.81;4897682;29;46005;-58
2021/09/14 07:49:28;;;;;;;;;14.75;13.50;;;;;21.16;73.96;100850.72;4898868;29;45424;-59
2021/09/14 07:51:53;;;;;;;;;12.25;11.50;;;;;21.21;74.08;100843.06;4896092;29;45399;-54
2021/09/14 07:54:19;;;;;;;;;17.00;13.50;;;;;21.27;73.92;100845.16;4897375;29;45414;-58
2021/09/14 07:56:45;;;;;;;;;12.75;12.00;;;;;21.35;73.78;100847.91;4895963;29;45374;-58
2021/09/14 07:59:12;;;;;;;;;12.50;10.00;;;;;21.41;74.15;100854.47;4896262;29;45359;-54
2021/09/14 08:01:38;;;;;;;;;17.75;15.50;;;;;21.49;74.21;100869.72;4897486;29;45483;-58
2021/09/14 08:04:04;;;;;;;;;15.50;13.75;;;;;21.56;74.20;100876.13;4894948;29;45377;-57
2021/09/14 08:06:29;;;;;;;;;13.25;12.25;;;;;21.61;74.04;100876.50;4897843;29;45427;-58
2021/09/14 08:08:55;;;;;;;;;13.50;13.00;;;;;21.68;74.01;100870.34;4895799;29;45363;-58
2021/09/14 08:11:20;;;;;;;;;15.25;14.00;;;;;21.77;73.66;100875.75;4900213;29;45417;-58
2021/09/14 08:13:48;;;;;;;;;16.00;15.00;;;;;21.85;74.19;100875.81;4896857;29;45285;-57
2021/09/14 08:16:14;;;;;;;;;11.50;11.25;;;;;21.92;73.69;100882.19;4896300;29;45246;-59
2021/09/14 08:18:39;;;;;;;;;14.75;14.00;;;;;21.99;73.76;100893.97;4894859;29;45311;-58
2021/09/14 08:21:05;;;;;;;;;13.50;13.25;;;;;22.02;73.38;100897.16;4896817;29;45575;-57
2021/09/14 08:23:32;;;;;;;;;13.25;11.75;;;;;22.05;73.63;100896.03;4896361;29;45229;-59
2021/09/14 08:25:58;;;;;;;;;15.25;14.75;;;;;22.10;73.26;100903.59;4897100;29;46235;-56
2021/09/14 08:28:23;;;;;;;;;16.75;14.75;;;;;22.12;73.44;100897.09;4899293;29;45379;-55
2021/09/14 08:30:49;;;;;;;;;15.75;13.50;;;;;22.17;73.41;100901.94;4898632;29;45369;-58
2021/09/14 08:33:14;;;;;;;;;16.50;13.50;;;;;22.20;72.99;100912.38;4895106;29;45358;-58
2021/09/14 08:35:40;;;;;;;;;18.00;13.00;;;;;22.22;72.90;100910.38;4899081;29;45372;-58
2021/09/14 08:38:05;;;;;;;;;14.00;13.25;;;;;22.21;72.57;100920.25;4894398;29;45329;-58
2021/09/14 08:40:31;;;;;;;;;16.50;14.00;;;;;22.21;72.63;100909.53;4895195;29;45378;-58
2021/09/14 08:42:58;;;;;;;;;18.00;13.00;;;;;22.19;72.54;100905.31;4896886;29;45320;-58
2021/09/14 08:45:24;;;;;;;;;14.00;11.25;;;;;22.20;72.49;100912.38;4898111;29;45871;-58
2021/09/14 08:47:50;;;;;;;;;11.75;10.50;;;;;22.21;72.55;100916.75;4889927;29;45395;-58
2021/09/14 08:50:15;;;;;;;;;14.00;12.50;;;;;22.23;72.24;100909.38;4898999;29;45585;-59
2021/09/14 08:52:41;;;;;;;;;12.75;12.75;;;;;22.27;72.51;100916.91;4894657;29;45443;-57
2021/09/14 08:55:07;;;;;;;;;10.50;10.50;;;;;22.27;72.77;100919.59;4898253;29;46166;-58
2021/09/14 08:57:32;;;;;;;;;22.50;21.50;;;;;22.33;72.80;100928.84;4898609;29;45397;-57
2021/09/14 08:59:58;;;;;;;;;19.00;17.75;;;;;22.35;72.66;100932.19;4896961;29;45363;-58
2021/09/14 09:02:24;;;;;;;;;13.50;12.50;;;;;22.36;72.72;100931.22;4896350;28;45306;-58
2021/09/14 09:05:04;;;;;;;;;13.25;11.50;;;;;22.37;73.38;100930.22;4895580;29;46155;-58
2021/09/14 09:07:37;;;;;;;;;11.00;9.75;;;;;22.40;72.46;100932.56;4895122;29;45487;-58
2021/09/14 09:10:13;;;;;;;;;13.25;13.00;;;;;22.44;72.14;100922.34;4896865;29;45367;-58
2021/09/14 09:12:43;;;;;;;;;16.25;14.25;;;;;22.49;72.16;100922.69;4895795;29;45381;-57
2021/09/14 09:15:10;;;;;;;;;13.25;12.75;;;;;22.51;72.33;100920.66;4883377;29;47287;-58
2021/09/14 09:17:36;;;;;;;;;12.50;12.50;;;;;22.53;72.69;100922.22;4895629;29;45452;-58
2021/09/14 09:20:03;;;;;;;;;14.50;14.25;;;;;22.57;72.28;100926.22;4893863;29;45392;-58
2021/09/14 09:22:29;;;;;;;;;13.75;12.75;;;;;22.62;72.17;100919.53;4895426;29;45285;-57
2021/09/14 09:24:55;;;;;;;;;12.50;12.00;;;;;22.68;71.62;100932.31;4898297;29;45256;-55
2021/09/14 09:27:27;;;;;;;;;14.75;12.25;;;;;22.68;71.90;100927.78;4896542;29;45334;-55
2021/09/14 09:29:59;;;;;;;;;13.50;13.50;;;;;22.67;71.75;100927.91;4895061;29;45393;-58
2021/09/14 09:32:25;;;;;;;;;15.00;15.00;;;;;22.69;71.74;100920.56;4898072;28;45584;-57
2021/09/14 09:34:59;;;;;;;;;16.75;13.50;;;;;22.70;72.07;100911.50;4894615;29;46319;-55
2021/09/14 09:37:25;;;;;;;;;13.25;12.25;;;;;22.69;71.64;100916.03;4896496;29;45411;-56
2021/09/14 09:39:51;;;;;;;;;17.75;14.75;;;;;22.72;71.42;100917.53;4895087;29;45295;-57
2021/09/14 09:42:17;;;;;;;;;20.25;15.50;;;;;22.76;71.81;100935.84;4895541;29;45516;-57
2021/09/14 09:44:59;;;;;;;;;16.50;13.25;;;;;22.81;71.84;100943.41;4893384;29;45318;-58
2021/09/14 09:47:25;;;;;;;;;19.25;16.50;;;;;22.86;71.80;100932.19;4895606;29;45390;-56
2021/09/14 09:49:52;;;;;;;;;14.50;12.50;;;;;22.92;70.63;100926.16;4896685;29;45729;-54
2021/09/14 09:52:19;;;;;;;;;14.50;14.25;;;;;23.02;70.86;100916.09;4896331;29;45309;-58
2021/09/14 09:54:45;;;;;;;;;16.00;15.25;;;;;23.11;70.96;100909.72;4894388;29;46294;-58
2021/09/14 09:57:12;;;;;;;;;13.50;12.25;;;;;23.18;71.47;100912.56;4896101;29;45434;-56
2021/09/14 09:59:38;;;;;;;;;19.75;15.00;;;;;23.25;71.36;100916.25;4893965;29;45472;-58
2021/09/14 10:02:13;;;;;;;;;19.25;17.00;;;;;23.30;70.57;100911.19;4893590;28;45410;-58
2021/09/14 10:04:45;;;;;;;;;15.25;13.50;;;;;23.34;70.97;100912.56;4895284;29;45475;-57
2021/09/14 10:07:12;;;;;;;;;15.25;15.25;;;;;23.37;70.85;100918.41;4894279;29;45499;-58
2021/09/14 10:09:51;;;;;;;;;15.00;14.25;;;;;23.40;70.36;100918.09;4893701;29;45464;-59
2021/09/14 10:12:28;;;;;;;;;15.25;15.00;;;;;23.44;69.77;100913.19;4880510;29;45636;-57
2021/09/14 10:14:57;;;;;;;;;11.25;9.50;;;;;23.49;70.32;100905.47;4894767;29;45940;-58
2021/09/14 10:17:23;;;;;;;;;21.00;13.25;;;;;23.54;70.06;100910.31;4895726;29;45402;-56
2021/09/14 10:19:49;;;;;;;;;20.75;17.00;;;;;23.58;70.16;100909.00;4897120;29;45331;-55
2021/09/14 10:22:23;;;;;;;;;25.75;15.75;;;;;23.62;69.54;100908.53;4894717;29;45381;-56
2021/09/14 10:24:53;;;;;;;;;17.25;16.75;;;;;23.65;68.99;100905.47;4893877;29;46296;-54
2021/09/14 10:27:19;;;;;;;;;19.75;14.00;;;;;23.69;69.29;100914.03;4892979;29;45371;-58
2021/09/14 10:29:56;;;;;;;;;19.00;18.00;;;;;23.75;69.68;100912.50;4893484;29;45321;-58
2021/09/14 10:32:21;;;;;;;;;17.50;15.50;;;;;23.80;68.86;100905.59;4893372;29;45469;-58
2021/09/14 10:34:56;;;;;;;;;14.25;10.75;;;;;23.86;68.34;100913.00;4897100;29;45347;-58
2021/09/14 10:37:29;;;;;;;;;16.25;13.75;;;;;23.90;68.56;100908.09;4892234;29;45334;-58
2021/09/14 10:40:08;;;;;;;;;12.25;12.00;;;;;23.94;68.05;100912.97;4896276;29;45502;-55
2021/09/14 10:42:37;;;;;;;;;13.25;12.75;;;;;24.01;68.20;100909.56;4892629;29;45332;-58
2021/09/14 10:45:23;;;;;;;;;14.00;12.00;;;;;24.11;67.29;100913.72;4897436;29;45277;-57
2021/09/14 10:47:49;;;;;;;;;12.00;12.00;;;;;24.18;67.50;100913.88;4893241;29;45439;-58
2021/09/14 10:50:29;;;;;;;;;11.50;9.75;;;;;24.28;66.91;100919.88;4896110;29;45666;-58
2021/09/14 10:52:59;;;;;;;;;14.50;12.00;;;;;24.36;66.43;100911.78;4895124;29;45440;-59
2021/09/14 10:55:24;;;;;;;;;13.75;13.00;;;;;24.46;66.55;100911.56;4894735;29;45374;-58
2021/09/14 10:57:56;;;;;;;;;12.00;11.00;;;;;24.52;66.24;100907.34;4895962;29;45432;-58
2021/09/14 11:00:33;;;;;;;;;13.75;10.00;;;;;24.54;66.11;100910.69;4895619;29;45331;-58
2021/09/14 11:03:05;;;;;;;;;11.00;10.50;;;;;24.54;65.86;100898.06;4896991;29;45265;-58
2021/09/14 11:05:35;;;;;;;;;9.50;9.50;;;;;24.56;66.09;100904.09;4897387;29;46054;-58
2021/09/14 11:08:05;;;;;;;;;14.75;13.25;;;;;24.63;65.45;100906.91;4900133;29;45367;-58
2021/09/14 11:10:39;;;;;;;;;13.75;10.75;;;;;24.65;64.55;100900.34;4897063;29;45480;-58
2021/09/14 11:13:05;;;;;;;;;11.50;9.75;;;;;24.67;65.14;100908.25;4897419;29;45579;-58
2021/09/14 11:15:31;;;;;;;;;14.25;13.50;;;;;24.64;64.80;100903.19;4896763;29;45488;-58
2021/09/14 11:17:57;;;;;;;;;12.75;12.00;;;;;24.65;64.95;100908.44;4895577;29;45249;-58
2021/09/14 11:20:26;;;;;;;;;13.75;11.50;;;;;24.66;64.50;100896.63;4898376;29;45385;-59
2021/09/14 11:22:53;;;;;;;;;14.25;12.00;;;;;24.64;64.83;100903.19;4898866;29;45442;-58
2021/09/14 11:25:22;;;;;;;;;16.00;13.00;;;;;24.70;64.77;100899.78;4898192;29;45547;-59
2021/09/14 11:27:58;;;;;;;;;11.75;11.00;;;;;24.74;64.85;100904.66;4894708;29;45363;-59
2021/09/14 11:30:25;;;;;;;;;15.25;12.25;;;;;24.75;64.53;100906.34;4894158;29;45395;-59
2021/09/14 11:32:51;;;;;;;;;11.25;11.00;;;;;24.76;64.50;100902.63;4890966;29;45502;-59
2021/09/14 11:35:18;;;;;;;;;15.00;12.00;;;;;24.82;64.41;100903.75;4898167;29;46287;-59
2021/09/14 11:37:43;;;;;;;;;14.25;12.50;;;;;24.89;64.23;100904.72;4897991;29;45447;-59
2021/09/14 11:40:20;;;;;;;;;20.25;14.00;;;;;24.97;63.89;100898.44;4899027;29;45316;-59
2021/09/14 11:43:02;;;;;;;;;16.00;12.25;;;;;25.10;63.88;100897.84;4897671;29;45546;-59
2021/09/14 11:45:30;;;;;;;;;11.50;10.75;;;;;25.31;63.26;100889.91;4896581;29;45872;-58
2021/09/14 11:47:57;;;;;;;;;12.50;11.50;;;;;25.46;63.46;100903.41;4895041;29;45684;-58
2021/09/14 11:50:31;;;;;;;;;12.50;11.50;;;;;25.54;62.58;100896.06;4895188;29;45257;-58
2021/09/14 11:53:13;;;;;;;;;11.00;11.00;;;;;25.61;62.68;100897.00;4895503;29;45547;-59
2021/09/14 11:55:41;;;;;;;;;11.50;10.50;;;;;25.71;62.30;100898.59;4896636;29;46287;-58
2021/09/14 11:58:06;;;;;;;;;10.50;9.50;;;;;25.78;62.12;100889.59;4897504;29;45395;-58
2021/09/14 12:00:45;;;;;;;;;14.00;12.00;;;;;25.83;61.84;100884.50;4896368;29;45325;-58
2021/09/14 12:03:11;;;;;;;;;11.75;11.00;;;;;25.89;62.20;100886.41;4899459;29;45924;-58
2021/09/14 12:05:37;;;;;;;;;10.75;10.50;;;;;25.96;61.69;100881.09;4897944;29;45188;-58
2021/09/14 12:08:11;;;;;;;;;11.75;9.75;;;;;25.95;61.04;100875.91;4899985;29;45425;-58
2021/09/14 12:10:45;;;;;;;;;13.75;10.75;;;;;25.84;60.91;100878.06;4897155;29;45435;-58
2021/09/14 12:13:16;;;;;;;;;13.00;10.25;;;;;25.77;61.04;100884.38;4897035;28;45574;-58
2021/09/14 12:15:42;;;;;;;;;12.75;11.00;;;;;25.69;61.08;100879.91;4897038;29;46636;-58
2021/09/14 12:18:07;;;;;;;;;11.75;9.50;;;;;25.65;60.92;100878.56;4895516;29;45360;-59
2021/09/14 12:20:33;;;;;;;;;11.75;9.00;;;;;25.65;61.45;100883.97;4896610;29;45215;-59
2021/09/14 12:22:59;;;;;;;;;11.00;10.50;;;;;25.68;61.00;100877.38;4897261;29;45515;-59
2021/09/14 12:25:25;;;;;;;;;9.50;9.50;;;;;25.70;61.76;100876.16;4895602;29;45465;-59
2021/09/14 12:27:51;;;;;;;;;9.00;5.00;;;;;25.73;61.46;100874.97;4895973;29;45459;-59
2021/09/14 12:30:16;;;;;;;;;9.50;7.25;;;;;25.80;60.74;100868.66;4896052;29;45537;-59
2021/09/14 12:32:42;;;;;;;;;10.25;8.75;;;;;25.88;60.64;100862.31;4897187;29;45371;-59
2021/09/14 12:35:08;;;;;;;;;11.25;9.00;;;;;25.97;60.41;100861.19;4895195;29;46514;-59
2021/09/14 12:37:33;;;;;;;;;10.25;9.75;;;;;26.03;60.32;100862.31;4898833;29;45395;-59
2021/09/14 12:39:59;;;;;;;;;9.75;8.75;;;;;26.09;60.66;100862.38;4896880;29;45415;-59
2021/09/14 12:42:24;;;;;;;;;11.25;10.50;;;;;26.18;59.79;100865.81;4897877;29;45577;-59
2021/09/14 12:44:50;;;;;;;;;12.50;9.50;;;;;26.27;59.99;100856.56;4898998;29;46043;-59
2021/09/14 12:47:15;;;;;;;;;11.00;10.00;;;;;26.36;59.23;100855.41;4896374;29;45482;-59
2021/09/14 12:49:41;;;;;;;;;9.00;8.00;;;;;26.43;59.05;100858.22;4894849;29;45578;-59
2021/09/14 12:52:06;;;;;;;;;10.25;8.00;;;;;26.54;58.09;100860.41;4896971;29;45513;-59
2021/09/14 12:54:32;;;;;;;;;8.75;5.25;;;;;26.57;57.52;100861.91;4895693;29;46269;-59
2021/09/14 12:56:57;;;;;;;;;5.75;5.75;;;;;26.62;57.19;100854.03;4895435;29;45242;-59
2021/09/14 12:59:23;;;;;;;;;8.75;7.25;;;;;26.65;56.36;100856.38;4897059;29;45165;-59
2021/09/14 13:01:48;;;;;;;;;7.25;5.25;;;;;26.67;56.13;100859.72;4897659;28;45234;-57
2021/09/14 13:04:14;;;;;;;;;8.00;6.75;;;;;26.66;56.09;100858.88;4898989;29;45337;-59
2021/09/14 13:06:40;;;;;;;;;9.50;6.00;;;;;26.63;56.56;100853.03;4897512;29;45250;-59
2021/09/14 13:09:05;;;;;;;;;7.75;6.25;;;;;26.57;55.65;100851.94;4897437;29;45178;-59
2021/09/14 13:11:31;;;;;;;;;10.25;6.75;;;;;26.53;55.03;100849.78;4899968;29;45335;-59
2021/09/14 13:16:41;;;;;;;;;6.50;6.00;;;;;26.52;55.30;100858.94;4896813;29;45313;-59
2021/09/14 13:19:06;;;;;;;;;5.75;5.00;;;;;26.51;54.97;100859.97;4899501;29;45293;-59
2021/09/14 13:21:32;;;;;;;;;5.25;5.25;;;;;26.49;54.35;100860.16;4895888;29;45426;-59
2021/09/14 13:23:58;;;;;;;;;5.00;5.00;;;;;26.50;54.50;100855.59;4898296;29;46052;-59
2021/09/14 13:26:24;;;;;;;;;6.25;5.00;;;;;26.52;54.82;100851.66;4896078;29;45337;-59
2021/09/14 13:28:50;;;;;;;;;7.75;7.00;;;;;26.56;54.85;100850.25;4897020;29;45557;-59
2021/09/14 13:31:16;;;;;;;;;6.00;6.00;;;;;26.56;54.83;100854.84;4897115;29;45607;-59
2021/09/14 13:33:41;;;;;;;;;10.00;7.75;;;;;26.59;55.35;100852.56;4893678;28;46660;-59
2021/09/14 13:36:07;;;;;;;;;7.75;6.75;;;;;26.64;54.97;100857.41;4896227;29;45334;-59
2021/09/14 13:38:33;;;;;;;;;6.25;6.00;;;;;26.68;55.11;100859.50;4895310;29;45250;-59
2021/09/14 13:41:07;;;;;;;;;8.00;6.00;;;;;26.77;55.04;100857.50;4894781;29;45244;-59
2021/09/14 13:43:50;;;;;;;;;8.25;7.00;;;;;26.83;54.77;100848.63;4894833;29;46243;-59
2021/09/14 13:46:16;;;;;;;;;8.25;5.50;;;;;26.85;54.49;100851.97;4896718;29;45466;-58
2021/09/14 13:48:51;;;;;;;;;6.00;6.00;;;;;26.91;54.82;100847.66;4896034;29;45288;-59
2021/09/14 13:51:22;;;;;;;;;6.50;5.50;;;;;26.97;54.35;100846.88;4895531;29;45408;-59
2021/09/14 13:53:50;;;;;;;;;10.25;8.00;;;;;27.00;53.80;100850.03;4894098;29;46241;-59
2021/09/14 13:56:21;;;;;;;;;3.00;2.25;;;;;27.03;53.95;100839.88;4894814;29;45456;-59
2021/09/14 13:58:47;;;;;;;;;6.25;5.00;;;;;27.07;53.45;100830.34;4896065;29;45339;-59
2021/09/14 14:01:14;;;;;;;;;7.25;7.00;;;;;27.11;53.10;100826.25;4894750;29;46428;-59
2021/09/14 14:03:40;;;;;;;;;7.00;4.50;;;;;27.13;53.37;100830.41;4893550;29;46065;-59
2021/09/14 14:06:05;;;;;;;;;6.25;5.00;;;;;27.12;52.24;100825.19;4897949;29;45371;-59
2021/09/14 14:08:31;;;;;;;;;6.25;4.75;;;;;27.06;52.64;100825.97;4897182;29;45296;-59
2021/09/14 14:10:56;;;;;;;;;6.50;5.75;;;;;27.06;52.93;100829.53;4896439;29;45643;-59
2021/09/14 14:13:22;;;;;;;;;5.50;5.25;;;;;27.04;52.45;100826.19;4896199;29;46130;-59
2021/09/14 14:15:48;;;;;;;;;6.75;6.75;;;;;27.04;52.69;100823.47;4895580;29;45269;-59
2021/09/14 14:18:13;;;;;;;;;9.50;5.25;;;;;27.01;52.65;100818.41;4894583;29;45274;-59
2021/09/14 14:20:39;;;;;;;;;6.50;6.25;;;;;26.99;52.92;100823.19;4896524;29;45538;-59
2021/09/14 14:23:04;;;;;;;;;9.75;7.00;;;;;26.97;52.72;100817.16;4895810;29;45476;-59
2021/09/14 14:25:30;;;;;;;;;83.75;72.25;;;;;26.95;52.94;100822.75;4896498;29;45309;-59
2021/09/14 14:27:56;;;;;;;;;4.25;3.00;;;;;26.93;53.21;100819.41;4897207;29;45223;-59
2021/09/14 14:30:21;;;;;;;;;28.00;24.25;;;;;26.91;53.19;100816.06;4895338;29;45415;-59
2021/09/14 14:32:47;;;;;;;;;7.25;5.25;;;;;26.90;53.14;100814.38;4893217;29;46165;-59
2021/09/14 14:35:12;;;;;;;;;5.00;5.00;;;;;26.92;53.13;100819.59;4894544;29;45758;-59
2021/09/14 14:37:38;;;;;;;;;10.75;9.75;;;;;26.91;53.58;100816.06;4894968;29;45453;-59
2021/09/14 14:40:04;;;;;;;;;7.50;6.75;;;;;26.89;53.89;100806.47;4893393;29;45574;-59
2021/09/14 14:42:29;;;;;;;;;7.25;6.00;;;;;26.88;53.50;100804.81;4894834;29;45507;-59
2021/09/14 14:44:55;;;;;;;;;11.50;6.00;;;;;26.83;54.04;100807.25;4896635;29;45476;-59
2021/09/14 14:47:20;;;;;;;;;5.00;4.00;;;;;26.79;53.81;100798.72;4896308;29;45359;-59
2021/09/14 14:49:46;;;;;;;;;8.00;6.00;;;;;26.76;53.52;100801.78;4895618;29;45663;-59
2021/09/14 14:52:11;;;;;;;;;7.50;5.75;;;;;26.69;53.76;100796.31;4895861;29;46008;-59
2021/09/14 14:54:36;;;;;;;;;8.00;5.50;;;;;26.65;53.67;100795.06;4896567;29;45564;-59
2021/09/14 14:57:02;;;;;;;;;7.75;6.00;;;;;26.63;53.59;100794.44;4895444;29;45402;-59
2021/09/14 14:59:29;;;;;;;;;11.25;7.00;;;;;26.61;53.30;100793.75;4894178;29;45268;-59
2021/09/14 15:01:55;;;;;;;;;8.25;7.75;;;;;26.61;54.12;100793.75;4896650;29;45283;-59
2021/09/14 15:04:21;;;;;;;;;10.00;7.50;;;;;26.60;54.34;100792.09;4894228;29;45233;-59
2021/09/14 15:06:46;;;;;;;;;9.25;6.75;;;;;26.59;54.08;100792.28;4895351;29;45310;-59
2021/09/14 15:09:12;;;;;;;;;8.75;7.50;;;;;26.56;54.65;100788.13;4896435;29;45178;-59
2021/09/14 15:11:37;;;;;;;;;8.75;7.00;;;;;26.55;54.68;100791.03;4898307;29;45596;-59
2021/09/14 15:14:03;;;;;;;;;10.75;7.25;;;;;26.53;54.32;100793.06;4892817;29;45503;-59
2021/09/14 15:16:28;;;;;;;;;8.00;6.75;;;;;26.55;54.50;100788.31;4894392;29;45325;-59
2021/09/14 15:18:53;;;;;;;;;10.25;8.00;;;;;26.56;54.57;100790.00;4895416;29;45343;-59
2021/09/14 15:21:19;;;;;;;;;7.00;7.00;;;;;26.58;54.55;100794.16;4895178;29;45536;-59
2021/09/14 15:23:45;;;;;;;;;10.25;7.25;;;;;26.63;54.55;100780.06;4895095;29;45402;-59
2021/09/14 15:26:11;;;;;;;;;8.50;6.00;;;;;26.66;53.97;100777.81;4897255;29;45322;-59
2021/09/14 15:28:36;;;;;;;;;8.50;7.00;;;;;26.69;54.30;100780.09;4894049;29;45342;-59
2021/09/14 15:31:02;;;;;;;;;8.75;6.00;;;;;26.70;54.13;100773.69;4892924;29;45316;-59
2021/09/14 15:33:27;;;;;;;;;9.50;7.25;;;;;26.73;54.28;100769.75;4894315;28;45357;-59
2021/09/14 15:35:54;;;;;;;;;10.00;8.50;;;;;26.73;54.29;100769.75;4893624;29;45282;-59
2021/09/14 15:38:28;;;;;;;;;11.25;8.75;;;;;26.72;54.66;100762.69;4893359;29;45166;-59
2021/09/14 15:40:57;;;;;;;;;7.00;6.25;;;;;26.68;54.66;100756.81;4893452;29;45178;-59
2021/09/14 15:43:25;;;;;;;;;11.25;9.00;;;;;26.64;54.53;100747.44;4892918;29;45347;-59
2021/09/14 15:45:51;;;;;;;;;7.25;7.25;;;;;26.60;54.96;100756.97;4892041;28;45397;-59
2021/09/14 15:48:17;;;;;;;;;7.50;7.00;;;;;26.55;55.34;100756.72;4897163;29;45339;-59
2021/09/14 15:50:47;;;;;;;;;7.00;7.00;;;;;26.52;55.65;100757.09;4898339;29;45364;-59
2021/09/14 15:53:13;;;;;;;;;12.00;9.25;;;;;26.49;55.72;100756.66;4897009;29;45406;-56
2021/09/14 15:55:39;;;;;;;;;9.75;9.75;;;;;26.47;55.85;100774.94;4897293;29;45472;-59
2021/09/14 15:58:05;;;;;;;;;8.25;7.25;;;;;26.44;55.95;100773.44;4895604;29;45548;-59
2021/09/14 16:00:31;;;;;;;;;14.75;10.00;;;;;26.41;56.07;100769.28;4897127;29;46270;-59
2021/09/14 16:02:58;;;;;;;;;11.00;9.00;;;;;26.42;56.13;100778.22;4896218;29;45484;-59
2021/09/14 16:05:24;;;;;;;;;9.75;9.25;;;;;26.39;56.42;100768.66;4897541;29;45244;-59
2021/09/14 16:07:50;;;;;;;;;10.00;9.00;;;;;26.40;56.43;100756.81;4898572;29;45231;-59
2021/09/14 16:10:16;;;;;;;;;10.25;7.50;;;;;26.39;56.80;100757.84;4896355;29;46353;-59
2021/09/14 16:12:41;;;;;;;;;12.50;10.00;;;;;26.37;56.52;100759.00;4899833;29;45831;-59
2021/09/14 16:15:08;;;;;;;;;8.00;7.00;;;;;26.32;56.56;100756.91;4897539;29;45231;-59
2021/09/14 16:17:33;;;;;;;;;15.75;12.00;;;;;26.27;57.26;100759.34;4898831;29;45424;-59
2021/09/14 16:19:59;;;;;;;;;11.00;10.75;;;;;26.23;56.84;100771.56;4895408;29;45450;-59
2021/09/14 16:22:25;;;;;;;;;8.50;7.50;;;;;26.20;57.12;100769.25;4899674;29;45341;-59
2021/09/14 16:24:51;;;;;;;;;10.00;10.00;;;;;26.20;56.84;100779.19;4898057;29;45272;-59
2021/09/14 16:27:18;;;;;;;;;9.00;9.00;;;;;26.19;57.44;100772.97;4898048;29;45384;-59
2021/09/14 16:29:44;;;;;;;;;10.00;9.00;;;;;26.16;57.16;100776.06;4897433;29;45396;-57
2021/09/14 16:32:09;;;;;;;;;10.25;8.75;;;;;26.15;57.59;100783.34;4894828;29;45188;-59
2021/09/14 16:34:35;;;;;;;;;8.50;8.50;;;;;26.13;57.45;100785.38;4897404;29;45402;-59
2021/09/14 16:37:00;;;;;;;;;12.50;9.50;;;;;26.10;57.53;100780.34;4896977;29;45587;-57
2021/09/14 16:39:26;;;;;;;;;10.75;8.00;;;;;26.10;57.73;100782.22;4896181;29;45389;-57
2021/09/14 16:41:51;;;;;;;;;10.25;8.25;;;;;26.06;58.36;100783.63;4895234;29;45234;-57
2021/09/14 16:44:20;;;;;;;;;9.25;8.75;;;;;26.00;58.84;100779.84;4897181;29;45226;-59
2021/09/14 16:46:46;;;;;;;;;11.00;10.00;;;;;25.96;59.86;100775.00;4898751;29;45442;-57
2021/09/14 16:49:12;;;;;;;;;10.50;9.75;;;;;25.87;60.36;100769.72;4894400;29;45406;-60
2021/09/14 16:51:38;;;;;;;;;12.00;11.25;;;;;25.80;60.82;100762.56;4898988;28;45274;-59
2021/09/14 16:54:06;;;;;;;;;11.25;9.75;;;;;25.72;61.20;100765.38;4898187;29;45405;-59
2021/09/14 16:56:31;;;;;;;;;9.50;8.25;;;;;25.64;61.97;100762.75;4897687;29;45555;-57
2021/09/14 16:58:58;;;;;;;;;14.75;13.75;;;;;25.55;62.37;100764.72;4896208;29;46019;-59